sensor_id;sensor_type;location;lat;lon;timestamp;temperature;humidity
24638;DHT22;12773;50.162;8.548;2024-02-23T00:00:07;9.30;99.90
24638;DHT22;12773;50.162;8.548;2024-02-23T00:02:56;9.30;99.90
24638;DHT22;12773;50.162;8.548;2024-02-23T00:05:44;9.20;99.90
24638;DHT22;12773;50.162;8.548;2024-02-23T00:08:32;9.10;99.90
24638;DHT22;12773;50.162;8.548;2024-02-23T00:11:20;9.10;99.90
24638;DHT22;12773;50.162;8.548;2024-02-23T00:14:08;9.10;99.90
24638;DHT22;12773;50.162;8.548;2024-02-23T00:16:55;9.20;99.90
24638;DHT22;12773;50.162;8.548;2024-02-23T00:19:45;9.20;99.90
24638;DHT22;12773;50.162;8.548;2024-02-23T00:22:34;9.20;99.90
24638;DHT22;12773;50.162;8.548;2024-02-23T00:25:21;9.20;99.90
24638;DHT22;12773;50.162;8.548;2024-02-23T00:28:09;9.20;99.90
24638;DHT22;12773;50.162;8.548;2024-02-23T00:30:57;9.20;99.90
24638;DHT22;12773;50.162;8.548;2024-02-23T00:33:44;9.10;99.90
24638;DHT22;12773;50.162;8.548;2024-02-23T00:36:32;9.10;99.90
24638;DHT22;12773;50.162;8.548;2024-02-23T00:39:19;9.20;99.90
24638;DHT22;12773;50.162;8.548;2024-02-23T00:42:06;9.20;99.90
24638;DHT22;12773;50.162;8.548;2024-02-23T00:44:54;9.10;99.90
24638;DHT22;12773;50.162;8.548;2024-02-23T00:47:42;9.10;99.90
24638;DHT22;12773;50.162;8.548;2024-02-23T00:50:30;9.10;99.90
24638;DHT22;12773;50.162;8.548;2024-02-23T00:53:17;9.00;99.90
24638;DHT22;12773;50.162;8.548;2024-02-23T00:56:06;9.00;99.90
24638;DHT22;12773;50.162;8.548;2024-02-23T00:58:54;9.00;99.90
24638;DHT22;12773;50.162;8.548;2024-02-23T01:01:41;9.10;99.90
24638;DHT22;12773;50.162;8.548;2024-02-23T01:04:29;9.00;99.90
24638;DHT22;12773;50.162;8.548;2024-02-23T01:07:16;9.00;99.90
24638;DHT22;12773;50.162;8.548;2024-02-23T01:10:04;8.90;99.90
24638;DHT22;12773;50.162;8.548;2024-02-23T01:12:52;9.00;99.90
24638;DHT22;12773;50.162;8.548;2024-02-23T01:15:40;9.00;99.90
24638;DHT22;12773;50.162;8.548;2024-02-23T01:18:27;8.80;99.90
24638;DHT22;12773;50.162;8.548;2024-02-23T01:21:15;8.60;99.90
24638;DHT22;12773;50.162;8.548;2024-02-23T01:24:03;8.50;99.90
24638;DHT22;12773;50.162;8.548;2024-02-23T01:26:50;8.50;99.90
24638;DHT22;12773;50.162;8.548;2024-02-23T01:29:38;8.40;99.90
24638;DHT22;12773;50.162;8.548;2024-02-23T01:32:25;8.40;99.90
24638;DHT22;12773;50.162;8.548;2024-02-23T01:35:13;8.30;99.90
24638;DHT22;12773;50.162;8.548;2024-02-23T01:38:00;8.30;99.90
24638;DHT22;12773;50.162;8.548;2024-02-23T01:40:48;8.20;99.90
24638;DHT22;12773;50.162;8.548;2024-02-23T01:43:35;8.20;99.90
24638;DHT22;12773;50.162;8.548;2024-02-23T01:46:23;8.10;99.90
24638;DHT22;12773;50.162;8.548;2024-02-23T01:49:10;8.10;99.90
24638;DHT22;12773;50.162;8.548;2024-02-23T01:51:59;7.90;99.90
24638;DHT22;12773;50.162;8.548;2024-02-23T01:54:47;7.90;99.90
24638;DHT22;12773;50.162;8.548;2024-02-23T01:57:34;7.80;99.90
24638;DHT22;12773;50.162;8.548;2024-02-23T02:00:23;7.80;99.90
24638;DHT22;12773;50.162;8.548;2024-02-23T02:03:11;7.80;99.90
24638;DHT22;12773;50.162;8.548;2024-02-23T02:05:59;7.70;99.90
24638;DHT22;12773;50.162;8.548;2024-02-23T02:08:47;7.80;99.90
24638;DHT22;12773;50.162;8.548;2024-02-23T02:11:34;7.70;99.90
24638;DHT22;12773;50.162;8.548;2024-02-23T02:14:22;7.70;99.90
24638;DHT22;12773;50.162;8.548;2024-02-23T02:17:10;7.60;99.90
24638;DHT22;12773;50.162;8.548;2024-02-23T02:19:59;7.60;99.90
24638;DHT22;12773;50.162;8.548;2024-02-23T02:22:49;7.60;99.90
24638;DHT22;12773;50.162;8.548;2024-02-23T02:25:37;7.50;99.90
24638;DHT22;12773;50.162;8.548;2024-02-23T02:28:25;7.50;99.90
24638;DHT22;12773;50.162;8.548;2024-02-23T02:31:12;7.60;99.90
24638;DHT22;12773;50.162;8.548;2024-02-23T02:34:00;7.60;99.90
24638;DHT22;12773;50.162;8.548;2024-02-23T02:36:47;7.50;99.90
24638;DHT22;12773;50.162;8.548;2024-02-23T02:39:36;7.50;99.90
24638;DHT22;12773;50.162;8.548;2024-02-23T02:42:23;7.40;99.90
24638;DHT22;12773;50.162;8.548;2024-02-23T02:45:11;7.40;99.90
24638;DHT22;12773;50.162;8.548;2024-02-23T02:48:00;7.40;99.90
24638;DHT22;12773;50.162;8.548;2024-02-23T02:50:50;7.30;99.90
24638;DHT22;12773;50.162;8.548;2024-02-23T02:53:40;7.30;99.90
24638;DHT22;12773;50.162;8.548;2024-02-23T02:56:27;7.30;99.90
24638;DHT22;12773;50.162;8.548;2024-02-23T02:59:15;7.40;99.90
24638;DHT22;12773;50.162;8.548;2024-02-23T03:02:04;7.50;99.90
24638;DHT22;12773;50.162;8.548;2024-02-23T03:04:52;7.60;99.90
24638;DHT22;12773;50.162;8.548;2024-02-23T03:07:41;7.60;99.90
24638;DHT22;12773;50.162;8.548;2024-02-23T03:10:28;7.60;99.90
24638;DHT22;12773;50.162;8.548;2024-02-23T03:13:16;7.60;99.90
24638;DHT22;12773;50.162;8.548;2024-02-23T03:16:03;7.70;99.90
24638;DHT22;12773;50.162;8.548;2024-02-23T03:18:51;7.70;99.90
24638;DHT22;12773;50.162;8.548;2024-02-23T03:21:40;7.60;99.90
24638;DHT22;12773;50.162;8.548;2024-02-23T03:24:28;7.50;99.90
24638;DHT22;12773;50.162;8.548;2024-02-23T03:27:15;7.50;99.90
24638;DHT22;12773;50.162;8.548;2024-02-23T03:30:04;7.50;99.90
24638;DHT22;12773;50.162;8.548;2024-02-23T03:32:54;7.50;99.90
24638;DHT22;12773;50.162;8.548;2024-02-23T03:35:41;7.60;99.90
24638;DHT22;12773;50.162;8.548;2024-02-23T03:38:29;7.60;99.90
24638;DHT22;12773;50.162;8.548;2024-02-23T03:41:18;7.60;99.90
24638;DHT22;12773;50.162;8.548;2024-02-23T03:44:06;7.60;99.90
24638;DHT22;12773;50.162;8.548;2024-02-23T03:46:54;7.60;99.90
24638;DHT22;12773;50.162;8.548;2024-02-23T03:49:42;7.50;99.90
24638;DHT22;12773;50.162;8.548;2024-02-23T03:52:29;7.50;99.90
24638;DHT22;12773;50.162;8.548;2024-02-23T03:55:17;7.50;99.90
24638;DHT22;12773;50.162;8.548;2024-02-23T03:58:04;7.50;99.90
24638;DHT22;12773;50.162;8.548;2024-02-23T04:00:52;7.30;99.90
24638;DHT22;12773;50.162;8.548;2024-02-23T04:03:39;7.20;99.90
24638;DHT22;12773;50.162;8.548;2024-02-23T04:06:27;7.10;99.90
24638;DHT22;12773;50.162;8.548;2024-02-23T04:09:14;7.00;99.90
24638;DHT22;12773;50.162;8.548;2024-02-23T04:12:02;6.90;99.90
24638;DHT22;12773;50.162;8.548;2024-02-23T04:14:50;7.00;99.90
24638;DHT22;12773;50.162;8.548;2024-02-23T04:17:38;7.00;99.90
24638;DHT22;12773;50.162;8.548;2024-02-23T04:20:25;7.00;99.90
24638;DHT22;12773;50.162;8.548;2024-02-23T04:23:13;7.10;99.90
24638;DHT22;12773;50.162;8.548;2024-02-23T04:26:01;7.00;99.90
24638;DHT22;12773;50.162;8.548;2024-02-23T04:28:48;7.10;99.90
24638;DHT22;12773;50.162;8.548;2024-02-23T04:31:39;7.20;99.90
24638;DHT22;12773;50.162;8.548;2024-02-23T04:34:27;7.20;99.90
24638;DHT22;12773;50.162;8.548;2024-02-23T04:37:14;7.20;99.90
24638;DHT22;12773;50.162;8.548;2024-02-23T04:40:02;7.20;99.90
24638;DHT22;12773;50.162;8.548;2024-02-23T04:42:50;7.20;99.90
24638;DHT22;12773;50.162;8.548;2024-02-23T04:45:38;7.20;99.90
24638;DHT22;12773;50.162;8.548;2024-02-23T04:48:25;7.10;99.90
24638;DHT22;12773;50.162;8.548;2024-02-23T04:51:13;7.10;99.90
24638;DHT22;12773;50.162;8.548;2024-02-23T04:54:01;7.20;99.90
24638;DHT22;12773;50.162;8.548;2024-02-23T04:56:49;7.20;99.90
24638;DHT22;12773;50.162;8.548;2024-02-23T04:59:36;7.10;99.90
24638;DHT22;12773;50.162;8.548;2024-02-23T05:02:25;7.00;99.90
24638;DHT22;12773;50.162;8.548;2024-02-23T05:05:14;7.00;99.90
24638;DHT22;12773;50.162;8.548;2024-02-23T05:08:02;7.00;99.90
24638;DHT22;12773;50.162;8.548;2024-02-23T05:10:50;6.90;99.90
24638;DHT22;12773;50.162;8.548;2024-02-23T05:13:38;6.90;99.90
24638;DHT22;12773;50.162;8.548;2024-02-23T05:16:27;6.90;99.90
24638;DHT22;12773;50.162;8.548;2024-02-23T05:19:15;6.80;99.90
24638;DHT22;12773;50.162;8.548;2024-02-23T05:22:03;6.80;99.90
24638;DHT22;12773;50.162;8.548;2024-02-23T05:24:51;6.80;99.90
24638;DHT22;12773;50.162;8.548;2024-02-23T05:27:38;6.80;99.90
24638;DHT22;12773;50.162;8.548;2024-02-23T05:30:26;6.80;99.90
24638;DHT22;12773;50.162;8.548;2024-02-23T05:33:15;6.80;99.90
24638;DHT22;12773;50.162;8.548;2024-02-23T05:36:04;6.70;99.90
24638;DHT22;12773;50.162;8.548;2024-02-23T05:38:52;6.70;99.90
24638;DHT22;12773;50.162;8.548;2024-02-23T05:41:39;6.70;99.90
24638;DHT22;12773;50.162;8.548;2024-02-23T05:44:26;6.70;99.90
24638;DHT22;12773;50.162;8.548;2024-02-23T05:47:15;6.50;99.90
24638;DHT22;12773;50.162;8.548;2024-02-23T05:50:03;6.50;99.90
24638;DHT22;12773;50.162;8.548;2024-02-23T05:52:51;6.40;99.90
24638;DHT22;12773;50.162;8.548;2024-02-23T05:55:39;6.30;99.90
24638;DHT22;12773;50.162;8.548;2024-02-23T05:58:26;6.30;99.90
24638;DHT22;12773;50.162;8.548;2024-02-23T06:01:13;6.20;99.90
24638;DHT22;12773;50.162;8.548;2024-02-23T06:04:01;6.20;99.90
24638;DHT22;12773;50.162;8.548;2024-02-23T06:06:48;6.10;99.90
24638;DHT22;12773;50.162;8.548;2024-02-23T06:09:36;6.20;99.90
24638;DHT22;12773;50.162;8.548;2024-02-23T06:12:24;6.10;99.90
24638;DHT22;12773;50.162;8.548;2024-02-23T06:15:12;6.10;99.90
24638;DHT22;12773;50.162;8.548;2024-02-23T06:17:59;6.20;99.90
24638;DHT22;12773;50.162;8.548;2024-02-23T06:20:47;6.20;99.90
24638;DHT22;12773;50.162;8.548;2024-02-23T06:23:35;6.30;99.90
24638;DHT22;12773;50.162;8.548;2024-02-23T06:26:23;6.40;99.90
24638;DHT22;12773;50.162;8.548;2024-02-23T06:29:10;6.30;99.90
24638;DHT22;12773;50.162;8.548;2024-02-23T06:32:00;6.30;99.90
24638;DHT22;12773;50.162;8.548;2024-02-23T06:34:49;6.30;99.90
24638;DHT22;12773;50.162;8.548;2024-02-23T06:37:37;6.40;99.90
24638;DHT22;12773;50.162;8.548;2024-02-23T06:40:24;6.40;99.90
24638;DHT22;12773;50.162;8.548;2024-02-23T06:43:13;6.40;99.90
24638;DHT22;12773;50.162;8.548;2024-02-23T06:46:10;6.40;99.90
24638;DHT22;12773;50.162;8.548;2024-02-23T06:48:54;6.50;99.90
24638;DHT22;12773;50.162;8.548;2024-02-23T06:51:42;6.50;99.90
24638;DHT22;12773;50.162;8.548;2024-02-23T06:54:29;6.60;99.90
24638;DHT22;12773;50.162;8.548;2024-02-23T06:57:17;6.60;99.90
24638;DHT22;12773;50.162;8.548;2024-02-23T07:00:05;6.80;99.90
24638;DHT22;12773;50.162;8.548;2024-02-23T07:02:54;6.90;99.90
24638;DHT22;12773;50.162;8.548;2024-02-23T07:05:41;6.90;99.90
24638;DHT22;12773;50.162;8.548;2024-02-23T07:08:29;7.00;99.90
24638;DHT22;12773;50.162;8.548;2024-02-23T07:11:17;7.10;99.90
24638;DHT22;12773;50.162;8.548;2024-02-23T07:14:05;7.10;99.90
24638;DHT22;12773;50.162;8.548;2024-02-23T07:16:53;7.00;99.90
24638;DHT22;12773;50.162;8.548;2024-02-23T07:19:40;7.00;99.90
24638;DHT22;12773;50.162;8.548;2024-02-23T07:22:28;7.00;99.90
24638;DHT22;12773;50.162;8.548;2024-02-23T07:25:19;7.00;99.90
24638;DHT22;12773;50.162;8.548;2024-02-23T07:28:07;7.00;99.90
24638;DHT22;12773;50.162;8.548;2024-02-23T07:30:55;7.10;99.90
24638;DHT22;12773;50.162;8.548;2024-02-23T07:33:43;7.10;99.90
24638;DHT22;12773;50.162;8.548;2024-02-23T07:36:30;7.20;99.90
24638;DHT22;12773;50.162;8.548;2024-02-23T07:39:19;7.20;99.90
24638;DHT22;12773;50.162;8.548;2024-02-23T07:42:06;7.30;99.90
24638;DHT22;12773;50.162;8.548;2024-02-23T07:44:55;7.40;99.90
24638;DHT22;12773;50.162;8.548;2024-02-23T07:47:43;7.40;99.90
24638;DHT22;12773;50.162;8.548;2024-02-23T07:50:31;7.30;99.90
24638;DHT22;12773;50.162;8.548;2024-02-23T07:53:18;7.30;99.90
24638;DHT22;12773;50.162;8.548;2024-02-23T07:56:08;7.40;99.90
24638;DHT22;12773;50.162;8.548;2024-02-23T07:58:55;7.40;99.90
24638;DHT22;12773;50.162;8.548;2024-02-23T08:01:43;7.40;99.90
24638;DHT22;12773;50.162;8.548;2024-02-23T08:04:30;7.40;99.90
24638;DHT22;12773;50.162;8.548;2024-02-23T08:07:18;7.50;99.90
24638;DHT22;12773;50.162;8.548;2024-02-23T08:10:06;7.40;99.90
24638;DHT22;12773;50.162;8.548;2024-02-23T08:12:54;7.50;99.90
24638;DHT22;12773;50.162;8.548;2024-02-23T08:15:41;7.60;99.90
24638;DHT22;12773;50.162;8.548;2024-02-23T08:18:29;7.70;99.90
24638;DHT22;12773;50.162;8.548;2024-02-23T08:21:16;7.70;99.90
24638;DHT22;12773;50.162;8.548;2024-02-23T08:24:05;7.60;99.90
24638;DHT22;12773;50.162;8.548;2024-02-23T08:26:53;7.60;99.90
24638;DHT22;12773;50.162;8.548;2024-02-23T08:29:40;7.70;99.90
24638;DHT22;12773;50.162;8.548;2024-02-23T08:32:28;7.80;99.90
24638;DHT22;12773;50.162;8.548;2024-02-23T08:35:15;7.70;99.90
24638;DHT22;12773;50.162;8.548;2024-02-23T08:38:03;7.70;99.90
24638;DHT22;12773;50.162;8.548;2024-02-23T08:40:51;7.80;99.90
24638;DHT22;12773;50.162;8.548;2024-02-23T08:43:38;7.80;99.90
24638;DHT22;12773;50.162;8.548;2024-02-23T08:46:26;7.90;99.90
24638;DHT22;12773;50.162;8.548;2024-02-23T08:49:13;7.90;99.90
24638;DHT22;12773;50.162;8.548;2024-02-23T08:52:01;7.90;99.90
24638;DHT22;12773;50.162;8.548;2024-02-23T08:54:48;7.80;99.90
24638;DHT22;12773;50.162;8.548;2024-02-23T08:57:36;7.90;99.90
24638;DHT22;12773;50.162;8.548;2024-02-23T09:00:24;7.80;99.90
24638;DHT22;12773;50.162;8.548;2024-02-23T09:03:11;7.80;99.90
24638;DHT22;12773;50.162;8.548;2024-02-23T09:05:59;7.80;99.90
24638;DHT22;12773;50.162;8.548;2024-02-23T09:08:47;7.80;99.90
24638;DHT22;12773;50.162;8.548;2024-02-23T09:11:34;7.90;99.90
24638;DHT22;12773;50.162;8.548;2024-02-23T09:14:22;7.90;99.90
24638;DHT22;12773;50.162;8.548;2024-02-23T09:17:12;7.90;99.90
24638;DHT22;12773;50.162;8.548;2024-02-23T09:19:59;7.80;99.90
24638;DHT22;12773;50.162;8.548;2024-02-23T09:22:47;7.80;99.90
24638;DHT22;12773;50.162;8.548;2024-02-23T09:25:35;7.80;99.90
24638;DHT22;12773;50.162;8.548;2024-02-23T09:28:23;7.80;99.90
24638;DHT22;12773;50.162;8.548;2024-02-23T09:31:11;7.90;99.90
24638;DHT22;12773;50.162;8.548;2024-02-23T09:33:58;8.00;99.90
24638;DHT22;12773;50.162;8.548;2024-02-23T09:36:46;8.00;99.90
24638;DHT22;12773;50.162;8.548;2024-02-23T09:39:35;8.10;99.90
24638;DHT22;12773;50.162;8.548;2024-02-23T09:42:22;8.30;99.90
24638;DHT22;12773;50.162;8.548;2024-02-23T09:45:13;8.40;99.90
24638;DHT22;12773;50.162;8.548;2024-02-23T09:48:01;8.50;99.90
24638;DHT22;12773;50.162;8.548;2024-02-23T09:50:52;8.60;99.90
24638;DHT22;12773;50.162;8.548;2024-02-23T09:53:40;8.60;99.90
24638;DHT22;12773;50.162;8.548;2024-02-23T09:56:29;8.50;99.90
24638;DHT22;12773;50.162;8.548;2024-02-23T09:59:16;8.40;99.90
24638;DHT22;12773;50.162;8.548;2024-02-23T10:02:13;8.60;99.90
24638;DHT22;12773;50.162;8.548;2024-02-23T10:05:00;8.60;99.90
24638;DHT22;12773;50.162;8.548;2024-02-23T10:07:49;8.70;99.90
24638;DHT22;12773;50.162;8.548;2024-02-23T10:10:38;8.70;99.90
24638;DHT22;12773;50.162;8.548;2024-02-23T10:13:25;8.80;99.90
24638;DHT22;12773;50.162;8.548;2024-02-23T10:16:13;8.60;99.90
24638;DHT22;12773;50.162;8.548;2024-02-23T10:19:02;8.70;99.90
24638;DHT22;12773;50.162;8.548;2024-02-23T10:21:49;8.80;99.90
24638;DHT22;12773;50.162;8.548;2024-02-23T10:24:37;8.70;99.90
24638;DHT22;12773;50.162;8.548;2024-02-23T10:27:24;8.70;99.90
24638;DHT22;12773;50.162;8.548;2024-02-23T10:30:13;8.70;99.90
24638;DHT22;12773;50.162;8.548;2024-02-23T10:33:05;8.80;99.90
24638;DHT22;12773;50.162;8.548;2024-02-23T10:35:58;9.00;99.90
24638;DHT22;12773;50.162;8.548;2024-02-23T10:38:47;9.00;99.90
24638;DHT22;12773;50.162;8.548;2024-02-23T10:41:37;9.00;99.90
24638;DHT22;12773;50.162;8.548;2024-02-23T10:44:28;9.10;99.90
24638;DHT22;12773;50.162;8.548;2024-02-23T10:47:16;9.00;99.90
24638;DHT22;12773;50.162;8.548;2024-02-23T10:50:06;9.00;99.90
24638;DHT22;12773;50.162;8.548;2024-02-23T10:52:54;9.00;99.90
24638;DHT22;12773;50.162;8.548;2024-02-23T10:55:44;9.20;99.90
24638;DHT22;12773;50.162;8.548;2024-02-23T10:58:32;9.40;99.90
24638;DHT22;12773;50.162;8.548;2024-02-23T11:01:21;9.70;99.90
24638;DHT22;12773;50.162;8.548;2024-02-23T11:04:10;10.20;99.90
24638;DHT22;12773;50.162;8.548;2024-02-23T11:06:57;10.30;99.90
24638;DHT22;12773;50.162;8.548;2024-02-23T11:09:59;10.30;99.90
24638;DHT22;12773;50.162;8.548;2024-02-23T11:12:49;10.30;99.90
24638;DHT22;12773;50.162;8.548;2024-02-23T11:15:41;10.30;99.90
24638;DHT22;12773;50.162;8.548;2024-02-23T11:18:29;10.20;99.90
24638;DHT22;12773;50.162;8.548;2024-02-23T11:21:17;9.80;99.90
24638;DHT22;12773;50.162;8.548;2024-02-23T11:24:07;9.50;99.90
24638;DHT22;12773;50.162;8.548;2024-02-23T11:27:01;9.50;99.90
24638;DHT22;12773;50.162;8.548;2024-02-23T11:30:04;9.70;99.90
24638;DHT22;12773;50.162;8.548;2024-02-23T11:32:58;9.70;99.90
24638;DHT22;12773;50.162;8.548;2024-02-23T11:35:47;9.60;99.90
24638;DHT22;12773;50.162;8.548;2024-02-23T11:38:39;9.50;99.90
24638;DHT22;12773;50.162;8.548;2024-02-23T11:41:27;9.50;99.90
24638;DHT22;12773;50.162;8.548;2024-02-23T11:44:15;9.30;99.90
24638;DHT22;12773;50.162;8.548;2024-02-23T11:47:04;9.10;99.90
24638;DHT22;12773;50.162;8.548;2024-02-23T11:49:51;8.80;99.90
24638;DHT22;12773;50.162;8.548;2024-02-23T11:52:39;8.60;99.90
24638;DHT22;12773;50.162;8.548;2024-02-23T11:55:26;8.60;99.90
24638;DHT22;12773;50.162;8.548;2024-02-23T11:58:15;8.60;99.90
24638;DHT22;12773;50.162;8.548;2024-02-23T12:01:05;8.70;99.90
24638;DHT22;12773;50.162;8.548;2024-02-23T12:03:53;8.80;99.90
24638;DHT22;12773;50.162;8.548;2024-02-23T12:06:42;9.00;99.90
24638;DHT22;12773;50.162;8.548;2024-02-23T12:09:29;9.10;99.90
24638;DHT22;12773;50.162;8.548;2024-02-23T12:12:17;9.10;99.90
24638;DHT22;12773;50.162;8.548;2024-02-23T12:15:06;9.00;99.90
24638;DHT22;12773;50.162;8.548;2024-02-23T12:17:54;9.10;99.90
24638;DHT22;12773;50.162;8.548;2024-02-23T12:20:43;9.20;99.90
24638;DHT22;12773;50.162;8.548;2024-02-23T12:23:40;9.30;99.90
24638;DHT22;12773;50.162;8.548;2024-02-23T12:26:28;9.40;99.90
24638;DHT22;12773;50.162;8.548;2024-02-23T12:29:15;9.50;99.90
24638;DHT22;12773;50.162;8.548;2024-02-23T12:32:06;9.50;99.90
24638;DHT22;12773;50.162;8.548;2024-02-23T12:34:54;9.50;99.90
24638;DHT22;12773;50.162;8.548;2024-02-23T12:37:43;9.40;99.90
24638;DHT22;12773;50.162;8.548;2024-02-23T12:40:31;9.40;99.90
24638;DHT22;12773;50.162;8.548;2024-02-23T12:43:19;9.60;99.90
24638;DHT22;12773;50.162;8.548;2024-02-23T12:46:12;9.70;99.90
24638;DHT22;12773;50.162;8.548;2024-02-23T12:49:00;9.80;99.90
24638;DHT22;12773;50.162;8.548;2024-02-23T12:51:48;9.90;99.90
24638;DHT22;12773;50.162;8.548;2024-02-23T12:54:35;10.00;99.90
24638;DHT22;12773;50.162;8.548;2024-02-23T12:57:23;10.00;99.90
24638;DHT22;12773;50.162;8.548;2024-02-23T13:00:11;9.90;99.90
24638;DHT22;12773;50.162;8.548;2024-02-23T13:02:58;9.70;99.90
24638;DHT22;12773;50.162;8.548;2024-02-23T13:05:46;9.80;99.90
24638;DHT22;12773;50.162;8.548;2024-02-23T13:08:33;9.60;99.90
24638;DHT22;12773;50.162;8.548;2024-02-23T13:11:21;9.60;99.90
24638;DHT22;12773;50.162;8.548;2024-02-23T13:14:09;9.70;99.90
24638;DHT22;12773;50.162;8.548;2024-02-23T13:16:56;9.50;99.90
24638;DHT22;12773;50.162;8.548;2024-02-23T13:19:44;9.50;99.90
24638;DHT22;12773;50.162;8.548;2024-02-23T13:22:33;9.60;99.90
24638;DHT22;12773;50.162;8.548;2024-02-23T13:25:21;9.70;99.90
24638;DHT22;12773;50.162;8.548;2024-02-23T13:28:09;9.70;99.90
24638;DHT22;12773;50.162;8.548;2024-02-23T13:30:56;9.80;99.90
24638;DHT22;12773;50.162;8.548;2024-02-23T13:33:43;10.10;99.90
24638;DHT22;12773;50.162;8.548;2024-02-23T13:36:31;10.30;99.90
24638;DHT22;12773;50.162;8.548;2024-02-23T13:39:19;10.50;99.90
24638;DHT22;12773;50.162;8.548;2024-02-23T13:42:07;10.50;99.90
24638;DHT22;12773;50.162;8.548;2024-02-23T13:44:56;10.40;99.90
24638;DHT22;12773;50.162;8.548;2024-02-23T13:48:01;10.20;99.90
24638;DHT22;12773;50.162;8.548;2024-02-23T13:50:50;9.90;99.90
24638;DHT22;12773;50.162;8.548;2024-02-23T13:53:37;9.80;99.90
24638;DHT22;12773;50.162;8.548;2024-02-23T13:56:26;9.80;99.90
24638;DHT22;12773;50.162;8.548;2024-02-23T13:59:14;9.90;99.90
24638;DHT22;12773;50.162;8.548;2024-02-23T14:02:01;9.90;99.90
24638;DHT22;12773;50.162;8.548;2024-02-23T14:04:49;9.90;99.90
24638;DHT22;12773;50.162;8.548;2024-02-23T14:07:36;10.00;99.90
24638;DHT22;12773;50.162;8.548;2024-02-23T14:10:24;10.10;99.90
24638;DHT22;12773;50.162;8.548;2024-02-23T14:13:11;10.10;99.90
24638;DHT22;12773;50.162;8.548;2024-02-23T14:15:59;10.10;99.90
24638;DHT22;12773;50.162;8.548;2024-02-23T14:18:48;10.30;99.90
24638;DHT22;12773;50.162;8.548;2024-02-23T14:21:35;10.60;99.90
24638;DHT22;12773;50.162;8.548;2024-02-23T14:24:23;10.60;99.90
24638;DHT22;12773;50.162;8.548;2024-02-23T14:27:11;10.60;99.90
24638;DHT22;12773;50.162;8.548;2024-02-23T14:29:58;10.60;99.90
24638;DHT22;12773;50.162;8.548;2024-02-23T14:32:47;10.40;99.90
24638;DHT22;12773;50.162;8.548;2024-02-23T14:35:34;10.50;99.90
24638;DHT22;12773;50.162;8.548;2024-02-23T14:38:22;10.50;99.90
24638;DHT22;12773;50.162;8.548;2024-02-23T14:41:10;10.50;99.90
24638;DHT22;12773;50.162;8.548;2024-02-23T14:43:58;10.60;99.90
24638;DHT22;12773;50.162;8.548;2024-02-23T14:46:45;10.60;99.90
24638;DHT22;12773;50.162;8.548;2024-02-23T14:49:32;10.60;99.90
24638;DHT22;12773;50.162;8.548;2024-02-23T14:52:20;10.70;99.90
24638;DHT22;12773;50.162;8.548;2024-02-23T14:55:08;10.80;99.90
24638;DHT22;12773;50.162;8.548;2024-02-23T14:57:57;10.70;99.90
24638;DHT22;12773;50.162;8.548;2024-02-23T15:00:44;10.70;99.90
24638;DHT22;12773;50.162;8.548;2024-02-23T15:03:33;10.80;99.90
24638;DHT22;12773;50.162;8.548;2024-02-23T15:06:20;10.80;99.90
24638;DHT22;12773;50.162;8.548;2024-02-23T15:09:09;10.70;99.90
24638;DHT22;12773;50.162;8.548;2024-02-23T15:11:57;10.70;99.90
24638;DHT22;12773;50.162;8.548;2024-02-23T15:14:45;10.70;99.90
24638;DHT22;12773;50.162;8.548;2024-02-23T15:17:33;10.60;99.90
24638;DHT22;12773;50.162;8.548;2024-02-23T15:20:20;10.40;99.90
24638;DHT22;12773;50.162;8.548;2024-02-23T15:23:08;10.40;99.90
24638;DHT22;12773;50.162;8.548;2024-02-23T15:25:55;10.50;99.90
24638;DHT22;12773;50.162;8.548;2024-02-23T15:28:44;10.70;99.90
24638;DHT22;12773;50.162;8.548;2024-02-23T15:31:31;10.80;99.90
24638;DHT22;12773;50.162;8.548;2024-02-23T15:34:19;11.00;99.90
24638;DHT22;12773;50.162;8.548;2024-02-23T15:37:08;10.80;99.90
24638;DHT22;12773;50.162;8.548;2024-02-23T15:39:55;10.70;99.90
24638;DHT22;12773;50.162;8.548;2024-02-23T15:42:43;10.80;99.90
24638;DHT22;12773;50.162;8.548;2024-02-23T15:45:30;10.70;99.90
24638;DHT22;12773;50.162;8.548;2024-02-23T15:48:18;10.60;99.90
24638;DHT22;12773;50.162;8.548;2024-02-23T15:51:05;10.60;99.90
24638;DHT22;12773;50.162;8.548;2024-02-23T15:53:54;10.70;99.90
24638;DHT22;12773;50.162;8.548;2024-02-23T15:56:42;10.60;99.90
24638;DHT22;12773;50.162;8.548;2024-02-23T15:59:29;10.60;99.90
24638;DHT22;12773;50.162;8.548;2024-02-23T16:02:17;10.50;99.90
24638;DHT22;12773;50.162;8.548;2024-02-23T16:05:05;10.20;99.90
24638;DHT22;12773;50.162;8.548;2024-02-23T16:07:53;10.10;99.90
24638;DHT22;12773;50.162;8.548;2024-02-23T16:10:41;10.10;99.90
24638;DHT22;12773;50.162;8.548;2024-02-23T16:13:29;10.00;99.90
24638;DHT22;12773;50.162;8.548;2024-02-23T16:16:16;9.80;99.90
24638;DHT22;12773;50.162;8.548;2024-02-23T16:19:04;9.70;99.90
24638;DHT22;12773;50.162;8.548;2024-02-23T16:21:51;9.80;99.90
24638;DHT22;12773;50.162;8.548;2024-02-23T16:24:38;9.80;99.90
24638;DHT22;12773;50.162;8.548;2024-02-23T16:27:28;9.80;99.90
24638;DHT22;12773;50.162;8.548;2024-02-23T16:30:16;9.60;99.90
24638;DHT22;12773;50.162;8.548;2024-02-23T16:33:03;9.50;99.90
24638;DHT22;12773;50.162;8.548;2024-02-23T16:35:52;9.30;99.90
24638;DHT22;12773;50.162;8.548;2024-02-23T16:38:40;9.20;99.90
24638;DHT22;12773;50.162;8.548;2024-02-23T16:41:28;9.30;99.90
24638;DHT22;12773;50.162;8.548;2024-02-23T16:44:15;9.30;99.90
24638;DHT22;12773;50.162;8.548;2024-02-23T16:47:04;9.50;99.90
24638;DHT22;12773;50.162;8.548;2024-02-23T16:49:52;9.50;99.90
24638;DHT22;12773;50.162;8.548;2024-02-23T16:52:40;9.60;99.90
24638;DHT22;12773;50.162;8.548;2024-02-23T16:55:28;9.60;99.90
24638;DHT22;12773;50.162;8.548;2024-02-23T16:58:16;9.70;99.90
24638;DHT22;12773;50.162;8.548;2024-02-23T17:01:06;9.80;99.90
24638;DHT22;12773;50.162;8.548;2024-02-23T17:03:54;9.80;99.90
24638;DHT22;12773;50.162;8.548;2024-02-23T17:06:42;9.80;99.90
24638;DHT22;12773;50.162;8.548;2024-02-23T17:09:29;9.80;99.90
24638;DHT22;12773;50.162;8.548;2024-02-23T17:12:16;9.70;99.90
24638;DHT22;12773;50.162;8.548;2024-02-23T17:15:06;9.70;99.90
24638;DHT22;12773;50.162;8.548;2024-02-23T17:17:53;9.70;99.90
24638;DHT22;12773;50.162;8.548;2024-02-23T17:20:41;9.60;99.90
24638;DHT22;12773;50.162;8.548;2024-02-23T17:23:28;9.60;99.90
24638;DHT22;12773;50.162;8.548;2024-02-23T17:26:16;9.60;99.90
24638;DHT22;12773;50.162;8.548;2024-02-23T17:29:04;9.60;99.90
24638;DHT22;12773;50.162;8.548;2024-02-23T17:31:51;9.70;99.90
24638;DHT22;12773;50.162;8.548;2024-02-23T17:34:39;9.60;99.90
24638;DHT22;12773;50.162;8.548;2024-02-23T17:37:26;9.60;99.90
24638;DHT22;12773;50.162;8.548;2024-02-23T17:40:14;9.50;99.90
24638;DHT22;12773;50.162;8.548;2024-02-23T17:43:01;9.50;99.90
24638;DHT22;12773;50.162;8.548;2024-02-23T17:45:49;9.50;99.90
24638;DHT22;12773;50.162;8.548;2024-02-23T17:48:36;9.50;99.90
24638;DHT22;12773;50.162;8.548;2024-02-23T17:51:24;9.40;99.90
24638;DHT22;12773;50.162;8.548;2024-02-23T17:54:11;9.50;99.90
24638;DHT22;12773;50.162;8.548;2024-02-23T17:56:59;9.60;99.90